createdAt,value
2019-05-16T00:00:29.068Z,7.00
2019-05-16T00:02:58.895Z,7.00
2019-05-16T00:05:28.107Z,7.00
2019-05-16T00:07:58.700Z,7.00
2019-05-16T00:10:25.354Z,7.00
2019-05-16T00:12:53.000Z,7.00
2019-05-16T00:15:20.664Z,7.00
2019-05-16T00:17:49.007Z,7.10
2019-05-16T00:20:18.989Z,7.00
2019-05-16T00:22:48.212Z,7.00
2019-05-16T00:25:17.560Z,7.00
2019-05-16T00:27:44.931Z,7.00
2019-05-16T00:30:12.777Z,7.00
2019-05-16T00:32:40.410Z,7.00
2019-05-16T00:35:09.267Z,6.90
2019-05-16T00:37:39.192Z,6.90
2019-05-16T00:40:08.231Z,6.90
2019-05-16T00:42:36.148Z,6.90
2019-05-16T00:45:04.891Z,6.90
2019-05-16T00:47:32.527Z,7.00
2019-05-16T00:50:00.225Z,7.00
2019-05-16T00:52:28.850Z,7.00
2019-05-16T00:54:57.991Z,7.00
2019-05-16T00:57:28.152Z,7.00
2019-05-16T00:59:56.194Z,7.00
2019-05-16T01:02:23.835Z,7.00
2019-05-16T01:04:51.511Z,7.00
2019-05-16T01:07:19.150Z,7.00
2019-05-16T01:09:48.657Z,7.00
2019-05-16T01:12:17.812Z,7.00
2019-05-16T01:14:47.690Z,7.00
2019-05-16T01:17:14.991Z,6.90
2019-05-16T01:19:42.631Z,6.90
2019-05-16T01:22:10.324Z,6.90
2019-05-16T01:24:41.166Z,6.90
2019-05-16T01:27:08.303Z,6.90
2019-05-16T01:29:38.380Z,6.90
2019-05-16T01:32:05.485Z,6.90
2019-05-16T01:34:33.114Z,6.90
2019-05-16T01:37:00.790Z,6.90
2019-05-16T01:39:29.032Z,6.90
2019-05-16T01:41:58.701Z,6.90
2019-05-16T01:44:26.058Z,6.90
2019-05-16T01:46:53.739Z,6.90
2019-05-16T01:49:21.380Z,6.90
2019-05-16T01:51:49.054Z,6.90
2019-05-16T01:54:17.998Z,6.90
2019-05-16T01:56:47.941Z,7.00
2019-05-16T01:59:15.211Z,7.00
2019-05-16T02:01:43.143Z,7.00
2019-05-16T02:04:12.230Z,7.00
2019-05-16T02:06:50.725Z,7.00
2019-05-16T02:09:11.682Z,7.00
2019-05-16T02:11:38.927Z,7.00
2019-05-16T02:14:06.673Z,7.00
2019-05-16T02:16:34.346Z,6.90
2019-05-16T02:19:01.983Z,6.90
2019-05-16T02:21:29.662Z,6.90
2019-05-16T02:23:58.508Z,6.90
2019-05-16T02:26:28.325Z,6.90
2019-05-16T02:28:56.024Z,6.90
2019-05-16T02:31:23.707Z,6.90
2019-05-16T02:33:51.417Z,6.80
2019-05-16T02:36:21.682Z,6.80
2019-05-16T02:38:51.513Z,6.80
2019-05-16T02:41:21.310Z,6.80
2019-05-16T02:43:47.237Z,6.80
2019-05-16T02:46:15.764Z,6.80
2019-05-16T02:48:43.472Z,6.90
2019-05-16T02:51:11.352Z,6.90
2019-05-16T02:53:41.692Z,6.90
2019-05-16T02:56:11.865Z,6.90
2019-05-16T02:58:44.166Z,6.80
2019-05-16T03:01:10.773Z,6.80
2019-05-16T03:03:40.230Z,6.80
2019-05-16T03:06:10.922Z,6.80
2019-05-16T03:08:37.027Z,6.80
2019-05-16T03:11:04.655Z,6.80
2019-05-16T03:13:33.202Z,6.80
2019-05-16T03:16:01.828Z,6.80
2019-05-16T03:18:31.177Z,6.80
2019-05-16T03:21:01.012Z,6.80
2019-05-16T03:23:30.812Z,6.80
2019-05-16T03:26:01.049Z,6.80
2019-05-16T03:28:30.502Z,6.70
2019-05-16T03:30:57.240Z,6.80
2019-05-16T03:33:32.766Z,6.80
2019-05-16T03:35:55.864Z,6.80
2019-05-16T03:38:23.886Z,6.80
2019-05-16T03:40:51.536Z,6.80
2019-05-16T03:43:21.868Z,6.80
2019-05-16T03:45:52.026Z,6.80
2019-05-16T03:48:21.211Z,6.80
2019-05-16T03:50:50.449Z,6.80
2019-05-16T03:53:20.700Z,6.80
2019-05-16T03:55:46.698Z,6.80
2019-05-16T03:58:14.487Z,6.80
2019-05-16T04:00:52.377Z,6.80
2019-05-16T04:03:21.333Z,6.80
2019-05-16T04:05:52.112Z,6.80
2019-05-16T04:08:23.694Z,6.80
2019-05-16T04:10:47.108Z,6.80
2019-05-16T04:13:14.788Z,6.80
2019-05-16T04:15:42.970Z,6.90
2019-05-16T04:18:11.293Z,6.90
2019-05-16T04:20:40.676Z,6.90
2019-05-16T04:23:11.228Z,7.00
2019-05-16T04:25:40.705Z,7.00
2019-05-16T04:28:07.329Z,7.00
2019-05-16T04:30:35.081Z,7.00
2019-05-16T04:33:02.770Z,7.00
2019-05-16T04:35:31.681Z,7.00
2019-05-16T04:38:01.822Z,7.00
2019-05-16T04:40:31.139Z,7.10
2019-05-16T04:43:01.039Z,7.10
2019-05-16T04:45:27.728Z,7.10
2019-05-16T04:47:55.368Z,7.20
2019-05-16T04:50:24.108Z,7.10
2019-05-16T04:52:52.042Z,7.20
2019-05-16T04:55:21.095Z,7.20
2019-05-16T04:57:51.192Z,7.20
2019-05-16T05:00:21.259Z,7.30
2019-05-16T05:02:47.851Z,7.30
2019-05-16T05:05:15.522Z,7.30
2019-05-16T05:07:43.511Z,7.30
2019-05-16T05:10:11.764Z,7.40
2019-05-16T05:12:40.847Z,7.40
2019-05-16T05:15:11.279Z,7.40
2019-05-16T05:17:41.222Z,7.40
2019-05-16T05:20:10.601Z,7.40
2019-05-16T05:22:39.770Z,7.40
2019-05-16T05:25:10.905Z,7.40
2019-05-16T05:27:40.963Z,7.40
2019-05-16T05:30:10.287Z,7.40
2019-05-16T05:32:37.237Z,7.50
2019-05-16T05:35:06.411Z,7.50
2019-05-16T05:37:34.093Z,7.60
2019-05-16T05:40:02.068Z,7.60
2019-05-16T05:42:30.642Z,7.60
2019-05-16T05:45:00.297Z,7.60
2019-05-16T05:47:30.507Z,7.60
2019-05-16T05:49:57.405Z,7.60
2019-05-16T05:52:25.134Z,7.60
2019-05-16T05:54:52.791Z,7.60
2019-05-16T05:57:20.980Z,7.60
2019-05-16T05:59:49.832Z,7.70
2019-05-16T06:02:20.000Z,7.80
2019-05-16T06:04:46.983Z,7.80
2019-05-16T06:07:14.623Z,7.80
2019-05-16T06:09:52.889Z,7.70
2019-05-16T06:12:11.661Z,7.80
2019-05-16T06:14:41.830Z,7.80
2019-05-16T06:17:11.280Z,7.80
2019-05-16T06:19:40.124Z,7.90
2019-05-16T06:22:10.026Z,8.00
2019-05-16T06:24:36.856Z,8.10
2019-05-16T06:27:04.491Z,8.10
2019-05-16T06:29:32.199Z,8.20
2019-05-16T06:32:00.306Z,8.20
2019-05-16T06:34:30.037Z,8.30
2019-05-16T06:36:57.419Z,8.40
2019-05-16T06:39:37.362Z,8.40
2019-05-16T06:41:54.455Z,8.50
2019-05-16T06:44:22.129Z,8.60
2019-05-16T06:46:59.929Z,8.60
2019-05-16T06:49:19.716Z,8.60
2019-05-16T06:51:47.547Z,8.70
2019-05-16T06:54:15.222Z,8.70
2019-05-16T06:56:42.860Z,8.80
2019-05-16T06:59:10.572Z,8.70
2019-05-16T07:01:40.289Z,8.70
2019-05-16T07:04:07.651Z,8.90
2019-05-16T07:06:51.897Z,9.00
2019-05-16T07:09:05.733Z,9.00
2019-05-16T07:11:33.363Z,9.10
2019-05-16T07:14:01.036Z,9.10
2019-05-16T07:16:29.987Z,9.10
2019-05-16T07:19:00.721Z,9.10
2019-05-16T07:21:28.058Z,9.10
2019-05-16T07:23:55.790Z,9.10
2019-05-16T07:26:23.415Z,9.00
2019-05-16T07:28:51.732Z,9.10
2019-05-16T07:31:22.437Z,9.10
2019-05-16T07:33:50.186Z,9.10
2019-05-16T07:36:20.690Z,9.20
2019-05-16T07:38:47.769Z,9.20
2019-05-16T07:41:15.464Z,9.30
2019-05-16T07:43:43.177Z,9.40
2019-05-16T07:46:11.228Z,9.40
2019-05-16T07:48:40.371Z,9.40
2019-05-16T07:51:10.321Z,9.50
2019-05-16T07:53:40.062Z,9.50
2019-05-16T07:56:07.012Z,9.60
2019-05-16T07:58:35.027Z,9.70
2019-05-16T08:01:07.805Z,9.90
2019-05-16T08:03:32.119Z,10.00
2019-05-16T08:06:01.662Z,10.10
2019-05-16T08:08:31.349Z,10.20
2019-05-16T08:11:01.324Z,10.10
2019-05-16T08:13:30.609Z,9.90
2019-05-16T08:15:57.361Z,9.90
2019-05-16T08:18:25.000Z,9.90
2019-05-16T08:20:52.893Z,9.90
2019-05-16T08:23:22.172Z,10.00
2019-05-16T08:30:52.739Z,10.20
2019-05-16T08:35:47.702Z,10.40
2019-05-16T08:38:15.348Z,10.40
2019-05-16T08:41:04.644Z,10.50
2019-05-16T08:43:12.629Z,10.50
2019-05-16T08:48:11.525Z,10.50
2019-05-16T08:50:06.464Z,10.10
2019-05-16T08:50:06.465Z,10.10
2019-05-16T08:50:42.037Z,10.50
2019-05-16T08:53:12.881Z,10.70
2019-05-16T08:55:42.930Z,10.70
2019-05-16T08:58:13.251Z,10.90
2019-05-16T09:00:37.192Z,10.90
2019-05-16T09:03:05.006Z,11.00
2019-05-16T09:05:32.650Z,11.10
2019-05-16T09:08:01.000Z,11.10
2019-05-16T09:10:11.186Z,10.50
2019-05-16T09:10:57.891Z,11.20
2019-05-16T09:12:58.160Z,11.20
2019-05-16T09:15:27.406Z,11.20
2019-05-16T09:17:57.904Z,11.10
2019-05-16T09:18:30.423Z,10.30
2019-05-16T09:20:27.735Z,11.10
2019-05-16T09:22:54.108Z,11.40
2019-05-16T09:25:21.819Z,11.40
2019-05-16T09:27:49.503Z,11.50
2019-05-16T09:30:17.587Z,11.50
2019-05-16T09:32:47.975Z,11.50
2019-05-16T09:35:17.174Z,11.40
2019-05-16T09:37:44.163Z,11.50
2019-05-16T09:40:12.075Z,11.40
2019-05-16T09:42:39.804Z,11.40
2019-05-16T09:45:10.709Z,11.40
2019-05-16T09:47:39.169Z,11.40
2019-05-16T09:50:07.995Z,11.40
2019-05-16T09:52:36.430Z,11.40
2019-05-16T09:55:07.101Z,11.30
2019-05-16T09:57:37.300Z,11.10
2019-05-16T10:00:06.802Z,11.00
2019-05-16T10:02:36.762Z,10.90
2019-05-16T10:05:12.378Z,10.80
2019-05-16T10:07:34.419Z,10.80
2019-05-16T10:10:02.073Z,10.70
2019-05-16T10:12:29.812Z,10.80
2019-05-16T10:14:59.718Z,10.80
2019-05-16T10:17:27.361Z,10.70
2019-05-16T10:19:56.550Z,10.70
2019-05-16T10:22:27.123Z,10.70
2019-05-16T10:24:54.000Z,10.80
2019-05-16T10:27:21.687Z,10.70
2019-05-16T10:29:49.324Z,10.80
2019-05-16T10:32:17.003Z,10.90
2019-05-16T10:34:46.719Z,10.90
2019-05-16T10:37:14.282Z,11.00
2019-05-16T10:39:41.922Z,11.00
2019-05-16T10:42:23.529Z,11.00
2019-05-16T10:44:39.072Z,11.20
2019-05-16T10:47:07.539Z,11.30
2019-05-16T10:49:38.821Z,11.40
2019-05-16T10:52:07.218Z,11.40
2019-05-16T10:54:36.795Z,11.50
2019-05-16T10:57:04.272Z,11.50
2019-05-16T11:00:02.013Z,11.50
2019-05-16T11:02:01.705Z,11.50
2019-05-16T11:04:48.430Z,11.50
2019-05-16T11:06:58.738Z,11.70
2019-05-16T11:09:26.728Z,11.80
2019-05-16T11:11:56.990Z,11.80
2019-05-16T11:14:24.095Z,12.00
2019-05-16T11:16:51.748Z,12.10
2019-05-16T11:19:24.218Z,12.20
2019-05-16T11:21:48.883Z,12.20
2019-05-16T11:24:16.948Z,12.30
2019-05-16T11:26:46.925Z,12.50
2019-05-16T11:29:16.363Z,12.50
2019-05-16T11:31:43.795Z,12.60
2019-05-16T11:34:11.498Z,12.50
2019-05-16T11:36:39.200Z,12.40
2019-05-16T11:39:08.592Z,12.30
2019-05-16T11:41:36.669Z,12.40
2019-05-16T11:44:06.707Z,12.50
2019-05-16T11:46:33.782Z,12.50
2019-05-16T11:49:01.531Z,12.50
2019-05-16T11:51:29.179Z,12.50
2019-05-16T11:53:59.959Z,12.50
2019-05-16T11:56:26.299Z,12.40
2019-05-16T11:58:53.942Z,12.40
2019-05-16T12:01:21.616Z,12.30
2019-05-16T12:03:49.260Z,12.20
2019-05-16T12:06:17.226Z,12.10
2019-05-16T12:08:46.760Z,12.10
2019-05-16T12:11:14.384Z,12.00
2019-05-16T12:13:42.019Z,12.00
2019-05-16T12:16:09.709Z,12.10
2019-05-16T12:18:37.605Z,12.00
2019-05-16T12:21:07.623Z,12.00
2019-05-16T12:23:37.214Z,12.00
2019-05-16T12:26:04.163Z,12.00
2019-05-16T12:28:31.812Z,11.90
2019-05-16T12:30:59.483Z,12.00
2019-05-16T12:33:27.558Z,12.10
2019-05-16T12:35:57.552Z,12.00
2019-05-16T12:38:27.366Z,12.00
2019-05-16T12:40:56.437Z,12.10
2019-05-16T12:43:23.668Z,12.10
2019-05-16T12:45:51.354Z,12.10
2019-05-16T12:48:20.478Z,12.10
2019-05-16T12:50:48.402Z,12.10
2019-05-16T12:53:16.068Z,12.10
2019-05-16T12:55:43.749Z,12.00
2019-05-16T12:58:13.544Z,12.00
2019-05-16T13:00:44.002Z,11.90
2019-05-16T13:03:10.232Z,11.90
2019-05-16T13:05:38.202Z,11.90
2019-05-16T13:08:05.851Z,12.00
2019-05-16T13:10:33.537Z,12.10
2019-05-16T13:13:01.190Z,12.10
2019-05-16T13:15:29.260Z,12.00
2019-05-16T13:17:57.220Z,12.20
2019-05-16T13:20:26.695Z,12.30
2019-05-16T13:22:56.500Z,12.40
2019-05-16T13:25:23.787Z,12.40
2019-05-16T13:27:51.432Z,12.50
2019-05-16T13:30:19.283Z,12.60
2019-05-16T13:32:46.926Z,12.90
2019-05-16T13:35:16.919Z,13.10
2019-05-16T13:37:47.481Z,13.20
2019-05-16T13:40:16.974Z,13.40
2019-05-16T13:42:44.190Z,13.50
2019-05-16T13:45:12.754Z,13.70
2019-05-16T13:47:40.391Z,13.70
2019-05-16T13:50:12.093Z,13.60
2019-05-16T13:52:37.539Z,13.60
2019-05-16T13:55:07.073Z,13.40
2019-05-16T13:57:37.131Z,13.20
2019-05-16T14:00:07.790Z,13.10
2019-05-16T14:02:37.514Z,13.10
2019-05-16T14:05:07.510Z,13.20
2019-05-16T14:07:37.427Z,13.20
2019-05-16T14:10:06.049Z,13.30
2019-05-16T14:12:33.727Z,13.50
2019-05-16T14:15:01.373Z,13.50
2019-05-16T14:17:29.055Z,13.50
2019-05-16T14:19:57.352Z,13.50
2019-05-16T14:22:27.604Z,13.50
2019-05-16T14:24:56.926Z,13.70
2019-05-16T14:27:26.685Z,13.80
2019-05-16T14:29:53.307Z,13.90
2019-05-16T14:32:21.020Z,14.00
2019-05-16T14:34:51.600Z,14.00
2019-05-16T14:37:18.119Z,14.00
2019-05-16T14:39:48.759Z,14.00
2019-05-16T14:42:17.888Z,13.80
2019-05-16T14:45:03.519Z,13.80
2019-05-16T14:47:13.952Z,13.70
2019-05-16T14:49:41.611Z,13.70
2019-05-16T14:52:09.302Z,13.70
2019-05-16T14:54:37.722Z,13.60
2019-05-16T14:57:05.675Z,13.60
2019-05-16T14:59:33.353Z,13.50
2019-05-16T15:02:00.994Z,13.40
2019-05-16T15:04:30.123Z,13.30
2019-05-16T15:06:58.020Z,13.30
2019-05-16T15:09:27.243Z,13.30
2019-05-16T15:11:57.840Z,13.20
2019-05-16T15:14:24.524Z,13.10
2019-05-16T15:16:52.202Z,13.10
2019-05-16T15:19:19.986Z,13.10
2019-05-16T15:21:47.892Z,13.00
2019-05-16T15:24:17.791Z,13.00
2019-05-16T15:26:47.199Z,13.00
2019-05-16T15:29:16.505Z,13.00
2019-05-16T15:31:46.547Z,13.00
2019-05-16T15:34:13.292Z,12.90
2019-05-16T15:36:40.940Z,12.90
2019-05-16T15:39:08.690Z,12.90
2019-05-16T15:41:36.770Z,12.80
2019-05-16T15:44:07.567Z,12.80
2019-05-16T15:46:34.103Z,12.80
2019-05-16T15:49:01.857Z,12.70
2019-05-16T15:51:30.272Z,12.70
2019-05-16T15:53:58.123Z,12.60
2019-05-16T15:56:27.112Z,12.60
2019-05-16T15:58:55.296Z,12.50
2019-05-16T16:01:22.946Z,12.40
2019-05-16T16:03:50.588Z,12.40
2019-05-16T16:06:18.268Z,12.40
2019-05-16T16:08:46.907Z,12.40
2019-05-16T16:11:17.159Z,12.30
2019-05-16T16:13:44.703Z,12.30
2019-05-16T16:16:12.389Z,12.20
2019-05-16T16:18:40.023Z,12.10
2019-05-16T16:21:08.055Z,12.10
2019-05-16T16:23:37.279Z,12.10
2019-05-16T16:26:07.107Z,12.10
2019-05-16T16:28:37.897Z,12.10
2019-05-16T16:31:07.389Z,12.10
2019-05-16T16:33:34.207Z,12.00
2019-05-16T16:36:01.928Z,12.00
2019-05-16T16:38:29.560Z,12.00
2019-05-16T16:40:57.546Z,12.00
2019-05-16T16:43:25.258Z,12.00
2019-05-16T16:46:04.465Z,12.10
2019-05-16T16:48:22.311Z,12.10
2019-05-16T16:50:49.953Z,12.10
2019-05-16T16:53:17.766Z,12.10
2019-05-16T16:55:47.640Z,12.10
2019-05-16T16:58:17.270Z,12.10
2019-05-16T17:00:47.479Z,12.10
2019-05-16T17:03:13.941Z,12.00
2019-05-16T17:05:41.612Z,12.00
2019-05-16T17:08:09.252Z,12.00
2019-05-16T17:10:38.137Z,12.00
2019-05-16T17:13:06.833Z,12.00
2019-05-16T17:15:36.731Z,11.90
2019-05-16T17:18:06.711Z,11.90
2019-05-16T17:20:33.596Z,11.90
2019-05-16T17:23:01.279Z,11.90
2019-05-16T17:25:28.924Z,11.80
2019-05-16T17:27:57.278Z,11.80
2019-05-16T17:30:25.086Z,11.80
2019-05-16T17:32:52.770Z,11.80
2019-05-16T17:35:20.583Z,11.80
2019-05-16T17:37:48.339Z,11.80
2019-05-16T17:40:17.596Z,11.70
2019-05-16T17:42:47.651Z,11.70
2019-05-16T17:45:17.983Z,11.70
2019-05-16T17:47:46.630Z,11.70
2019-05-16T17:50:16.947Z,11.70
2019-05-16T17:52:43.999Z,11.60
2019-05-16T17:55:11.911Z,11.60
2019-05-16T17:57:39.605Z,11.60
2019-05-16T18:00:13.010Z,11.60
2019-05-16T18:02:37.300Z,11.60
2019-05-16T18:05:07.405Z,11.60
2019-05-16T18:07:36.801Z,11.50
2019-05-16T18:10:07.522Z,11.50
2019-05-16T18:12:37.186Z,11.50
2019-05-16T18:15:08.464Z,11.50
2019-05-16T18:17:36.153Z,11.40
2019-05-16T18:20:07.055Z,11.40
2019-05-16T18:22:36.617Z,11.40
2019-05-16T18:25:07.019Z,11.40
2019-05-16T18:27:37.410Z,11.30
2019-05-16T18:30:08.158Z,11.30
2019-05-16T18:32:37.324Z,11.30
2019-05-16T18:35:07.296Z,11.30
2019-05-16T18:37:35.251Z,11.20
2019-05-16T18:40:03.803Z,11.20
2019-05-16T18:42:31.443Z,11.20
2019-05-16T18:44:59.131Z,11.20
2019-05-16T18:47:27.141Z,11.20
2019-05-16T18:49:57.212Z,11.10
2019-05-16T18:52:24.383Z,11.10
2019-05-16T18:54:52.159Z,11.10
2019-05-16T18:57:20.107Z,11.10
2019-05-16T18:59:47.798Z,11.10
2019-05-16T19:02:17.751Z,11.10
2019-05-16T19:04:46.571Z,11.10
2019-05-16T19:07:16.678Z,11.00
2019-05-16T19:09:43.721Z,11.00
2019-05-16T19:12:11.368Z,11.00
2019-05-16T19:14:39.107Z,11.10
2019-05-16T19:17:20.584Z,11.10
2019-05-16T19:19:37.618Z,11.00
2019-05-16T19:22:06.584Z,11.00
2019-05-16T19:24:34.367Z,11.00
2019-05-16T19:27:02.063Z,10.90
2019-05-16T19:29:29.759Z,10.90
2019-05-16T19:31:57.412Z,10.90
2019-05-16T19:34:26.977Z,10.90
2019-05-16T19:36:54.467Z,10.90
2019-05-16T19:39:22.156Z,10.90
2019-05-16T19:41:50.123Z,10.90
2019-05-16T19:44:17.809Z,10.90
2019-05-16T19:46:46.930Z,10.90
2019-05-16T19:49:14.783Z,10.90
2019-05-16T19:51:42.427Z,10.90
2019-05-16T19:54:10.380Z,10.80
2019-05-16T19:56:38.058Z,10.80
2019-05-16T19:59:06.679Z,10.80
2019-05-16T20:01:36.753Z,10.70
2019-05-16T20:04:03.966Z,10.70
2019-05-16T20:06:31.644Z,10.70
2019-05-16T20:08:59.282Z,10.70
2019-05-16T20:11:27.689Z,10.70
2019-05-16T20:13:56.773Z,10.70
2019-05-16T20:16:27.138Z,10.70
2019-05-16T20:18:58.228Z,10.70
2019-05-16T20:21:27.506Z,10.70
2019-05-16T20:23:56.773Z,10.70
2019-05-16T20:26:27.244Z,10.70
2019-05-16T20:28:56.854Z,10.70
2019-05-16T20:31:23.794Z,10.60
2019-05-16T20:33:51.444Z,10.60
2019-05-16T20:36:19.133Z,10.60
2019-05-16T20:38:46.782Z,10.60
2019-05-16T20:41:16.876Z,10.60
2019-05-16T20:43:44.308Z,10.60
2019-05-16T20:46:12.492Z,10.60
2019-05-16T20:48:40.132Z,10.60
2019-05-16T20:51:07.860Z,10.60
2019-05-16T20:53:37.529Z,10.60
2019-05-16T20:56:06.554Z,10.60
2019-05-16T20:58:34.423Z,10.60
2019-05-16T21:01:02.401Z,10.60
2019-05-16T21:03:32.355Z,10.60
2019-05-16T21:06:00.060Z,10.50
2019-05-16T21:08:27.764Z,10.50
2019-05-16T21:10:57.065Z,10.50
2019-05-16T21:13:24.867Z,10.50
2019-05-16T21:15:52.836Z,10.50
2019-05-16T21:18:20.476Z,10.50
2019-05-16T21:20:48.167Z,10.50
2019-05-16T21:23:16.722Z,10.50
2019-05-16T21:25:46.589Z,10.50
2019-05-16T21:28:19.477Z,10.50
2019-05-16T21:30:43.931Z,10.50
2019-05-16T21:33:11.574Z,10.50
2019-05-16T21:35:39.580Z,10.50
2019-05-16T21:38:09.023Z,10.40
2019-05-16T21:40:37.202Z,10.40
2019-05-16T21:43:07.258Z,10.40
2019-05-16T21:45:36.955Z,10.40
2019-05-16T21:48:03.870Z,10.40
2019-05-16T21:50:31.579Z,10.40
2019-05-16T21:52:59.222Z,10.40
2019-05-16T21:55:29.885Z,10.40
2019-05-16T21:57:57.452Z,10.40
2019-05-16T22:00:31.451Z,10.40
2019-05-16T22:02:59.130Z,10.40
2019-05-16T22:05:27.087Z,10.40
2019-05-16T22:07:56.781Z,10.30
2019-05-16T22:10:26.444Z,10.30
2019-05-16T22:12:53.960Z,10.20
2019-05-16T22:15:21.596Z,10.20
2019-05-16T22:17:49.617Z,10.20
2019-05-16T22:20:17.335Z,10.20
2019-05-16T22:22:46.997Z,10.20
2019-05-16T22:25:16.604Z,10.20
2019-05-16T22:27:48.402Z,10.20
2019-05-16T22:30:16.727Z,10.20
2019-05-16T22:32:44.483Z,10.10
2019-05-16T22:35:12.393Z,10.10
2019-05-16T22:37:49.298Z,10.10
2019-05-16T22:40:09.526Z,10.10
2019-05-16T22:42:37.614Z,10.10
2019-05-16T22:45:08.878Z,10.00
2019-05-16T22:47:37.337Z,10.00
2019-05-16T22:50:08.462Z,10.00
2019-05-16T22:52:36.774Z,10.00
2019-05-16T22:55:07.832Z,10.00
2019-05-16T22:57:35.471Z,10.00
2019-05-16T23:00:07.482Z,9.90
2019-05-16T23:02:36.710Z,9.90
2019-05-16T23:05:04.679Z,9.90
2019-05-16T23:07:32.326Z,9.90
2019-05-16T23:10:00.079Z,9.90
2019-05-16T23:12:27.715Z,9.90
2019-05-16T23:14:56.931Z,9.90
2019-05-16T23:17:26.654Z,9.90
2019-05-16T23:19:56.670Z,9.80
2019-05-16T23:22:24.142Z,9.80
2019-05-16T23:24:51.822Z,9.80
2019-05-16T23:27:19.451Z,9.80
2019-05-16T23:29:47.519Z,9.80
2019-05-16T23:32:15.244Z,9.80
2019-05-16T23:34:43.267Z,9.80
2019-05-16T23:37:10.903Z,9.70
2019-05-16T23:39:38.579Z,9.70
2019-05-16T23:42:06.442Z,9.70
2019-05-16T23:44:36.526Z,9.70
2019-05-16T23:47:03.946Z,9.70
2019-05-16T23:49:31.614Z,9.70
2019-05-16T23:51:59.250Z,9.70
2019-05-16T23:54:27.808Z,9.70
2019-05-16T23:56:57.298Z,9.70
2019-05-16T23:59:27.557Z,9.60
